createdAt,value
2023-01-02T00:01:10.730Z,11.40
2023-01-02T00:03:37.615Z,11.40
2023-01-02T00:06:05.717Z,11.40
2023-01-02T00:08:32.926Z,11.40
2023-01-02T00:11:00.427Z,11.30
2023-01-02T00:13:27.461Z,11.40
2023-01-02T00:15:54.314Z,11.30
2023-01-02T00:18:21.114Z,11.40
2023-01-02T00:20:47.915Z,11.50
2023-01-02T00:23:14.680Z,11.60
2023-01-02T00:25:41.798Z,11.60
2023-01-02T00:28:08.626Z,11.60
2023-01-02T00:30:38.891Z,11.60
2023-01-02T00:33:07.565Z,11.50
2023-01-02T00:35:37.883Z,11.60
2023-01-02T00:38:05.284Z,11.70
2023-01-02T00:40:32.116Z,11.60
2023-01-02T00:42:59.247Z,11.70
2023-01-02T00:45:26.605Z,11.60
2023-01-02T00:47:53.462Z,11.50
2023-01-02T00:50:20.742Z,11.60
2023-01-02T00:52:47.758Z,11.50
2023-01-02T00:55:14.531Z,11.60
2023-01-02T00:57:41.383Z,11.50
2023-01-02T01:00:08.628Z,11.50
2023-01-02T01:02:36.114Z,11.50
2023-01-02T01:05:02.967Z,11.50
2023-01-02T01:07:30.561Z,11.50
2023-01-02T01:09:57.315Z,11.60
2023-01-02T01:12:24.576Z,11.50
2023-01-02T01:14:51.383Z,11.60
2023-01-02T01:17:18.829Z,11.60
2023-01-02T01:19:45.931Z,11.60
2023-01-02T01:22:12.829Z,11.60
2023-01-02T01:24:39.970Z,11.60
2023-01-02T01:27:07.312Z,11.60
2023-01-02T01:29:34.123Z,11.70
2023-01-02T01:32:01.446Z,11.70
2023-01-02T01:34:28.297Z,11.70
2023-01-02T01:36:55.444Z,11.90
2023-01-02T01:39:22.197Z,11.80
2023-01-02T01:41:50.033Z,11.80
2023-01-02T01:44:39.460Z,11.90
2023-01-02T01:47:19.162Z,11.80
2023-01-02T01:49:46.933Z,11.90
2023-01-02T01:52:22.962Z,11.90
2023-01-02T01:55:16.746Z,12.10
2023-01-02T01:57:50.724Z,11.90
2023-01-02T02:00:17.823Z,12.00
2023-01-02T02:02:48.698Z,11.90
2023-01-02T02:05:19.892Z,11.90
2023-01-02T02:08:00.188Z,11.80
2023-01-02T02:10:26.994Z,11.70
2023-01-02T02:12:54.258Z,11.70
2023-01-02T02:15:26.949Z,11.70
2023-01-02T02:18:23.042Z,11.70
2023-01-02T02:21:46.168Z,11.70
2023-01-02T02:24:47.306Z,11.60
2023-01-02T02:27:48.323Z,11.50
2023-01-02T02:30:21.847Z,11.80
2023-01-02T02:32:54.716Z,11.60
2023-01-02T02:43:52.931Z,11.70
2023-01-02T02:49:30.685Z,11.50
2023-01-02T02:52:23.082Z,11.60
2023-01-02T02:55:05.479Z,11.60
2023-01-02T03:00:18.939Z,11.40
2023-01-02T03:02:49.552Z,11.30
2023-01-02T03:05:30.726Z,11.30
2023-01-02T03:10:50.139Z,11.40
2023-01-02T03:13:52.510Z,11.40
2023-01-02T03:16:36.570Z,11.50
2023-01-02T03:19:15.427Z,11.60
2023-01-02T03:21:53.948Z,11.40
2023-01-02T03:24:22.871Z,11.30
2023-01-02T03:26:55.208Z,11.30
2023-01-02T03:29:31.289Z,11.40
2023-01-02T03:31:59.934Z,11.20
2023-01-02T03:34:33.168Z,11.30
2023-01-02T03:37:07.760Z,11.20
2023-01-02T03:39:38.606Z,11.10
2023-01-02T03:42:14.737Z,11.00
2023-01-02T03:44:47.197Z,11.00
2023-01-02T03:47:32.793Z,10.90
2023-01-02T03:50:06.653Z,10.90
2023-01-02T03:52:33.489Z,10.80
2023-01-02T03:55:01.186Z,10.70
2023-01-02T03:57:57.066Z,10.80
2023-01-02T04:00:36.686Z,10.70
2023-01-02T04:03:24.699Z,10.80
2023-01-02T04:05:59.142Z,10.80
2023-01-02T04:09:05.537Z,10.90
2023-01-02T04:11:35.684Z,10.80
2023-01-02T04:14:11.125Z,10.80
2023-01-02T04:16:41.300Z,10.70
2023-01-02T04:19:26.547Z,10.80
2023-01-02T04:21:57.923Z,10.80
2023-01-02T04:24:31.328Z,10.80
2023-01-02T04:27:05.764Z,10.80
2023-01-02T04:29:32.632Z,10.80
2023-01-02T04:32:08.021Z,10.80
2023-01-02T04:34:36.969Z,10.70
2023-01-02T04:37:03.785Z,10.70
2023-01-02T04:39:31.429Z,10.70
2023-01-02T04:41:59.064Z,10.60
2023-01-02T04:44:25.878Z,10.70
2023-01-02T04:46:52.679Z,11.00
2023-01-02T04:49:19.572Z,10.80
2023-01-02T04:51:46.762Z,10.80
2023-01-02T04:54:13.601Z,10.90
2023-01-02T04:56:40.421Z,10.80
2023-01-02T04:59:07.607Z,11.00
2023-01-02T05:01:34.473Z,11.00
2023-01-02T05:04:01.681Z,11.10
2023-01-02T05:06:28.436Z,11.20
2023-01-02T05:08:55.561Z,11.10
2023-01-02T05:11:22.385Z,11.10
2023-01-02T05:13:49.681Z,11.30
2023-01-02T05:16:16.714Z,11.30
2023-01-02T05:18:44.187Z,11.30
2023-01-02T05:21:32.657Z,11.20
2023-01-02T05:24:04.374Z,11.10
2023-01-02T05:26:33.025Z,11.30
2023-01-02T05:29:00.944Z,11.20
2023-01-02T05:31:28.228Z,11.60
2023-01-02T05:33:56.265Z,11.60
2023-01-02T05:36:24.661Z,11.50
2023-01-02T05:38:53.102Z,11.40
2023-01-02T05:49:25.170Z,11.10
2023-01-02T05:51:51.913Z,11.10
2023-01-02T05:54:19.091Z,11.10
2023-01-02T05:56:45.838Z,11.10
2023-01-02T05:59:15.005Z,11.10
2023-01-02T06:01:42.105Z,11.10
2023-01-02T06:04:09.347Z,11.20
2023-01-02T06:06:40.379Z,11.10
2023-01-02T06:09:09.041Z,11.20
2023-01-02T06:11:41.221Z,11.30
2023-01-02T06:14:12.051Z,11.40
2023-01-02T06:16:40.473Z,11.50
2023-01-02T06:19:07.648Z,11.40
2023-01-02T06:21:34.837Z,11.50
2023-01-02T06:24:01.979Z,11.50
2023-01-02T06:26:34.630Z,11.60
2023-01-02T06:29:02.872Z,11.60
2023-01-02T06:31:29.931Z,11.70
2023-01-02T06:34:02.039Z,11.90
2023-01-02T06:36:34.722Z,11.80
2023-01-02T06:39:01.958Z,11.90
2023-01-02T06:41:29.076Z,12.00
2023-01-02T06:43:56.187Z,12.20
2023-01-02T06:46:24.379Z,12.30
2023-01-02T06:48:51.536Z,12.20
2023-01-02T06:51:23.678Z,12.30
2023-01-02T06:53:50.986Z,12.30
2023-01-02T06:56:20.604Z,12.00
2023-01-02T06:58:47.728Z,11.90
2023-01-02T07:01:18.909Z,11.90
2023-01-02T07:03:46.062Z,11.80
2023-01-02T07:06:15.872Z,11.90
2023-01-02T07:08:43.429Z,11.90
2023-01-02T07:11:15.505Z,12.10
2023-01-02T07:13:43.770Z,12.20
2023-01-02T07:16:13.453Z,12.40
2023-01-02T07:18:41.448Z,12.30
2023-01-02T07:21:10.130Z,12.40
2023-01-02T07:23:37.592Z,12.30
2023-01-02T07:26:05.849Z,12.30
2023-01-02T07:28:33.953Z,12.20
2023-01-02T07:31:03.864Z,12.20
2023-01-02T07:33:31.703Z,12.20
2023-01-02T07:36:04.251Z,12.30
2023-01-02T07:38:32.250Z,12.20
2023-01-02T07:43:32.936Z,12.10
2023-01-02T07:46:04.711Z,12.00
2023-01-02T07:48:32.618Z,12.10
2023-01-02T07:51:04.257Z,12.10
2023-01-02T07:53:31.664Z,12.10
2023-01-02T07:55:59.833Z,12.00
2023-01-02T07:58:27.460Z,12.00
2023-01-02T08:00:59.735Z,12.00
2023-01-02T08:03:31.788Z,12.00
2023-01-02T08:06:07.335Z,12.10
2023-01-02T08:08:35.108Z,12.20
2023-01-02T08:16:09.818Z,12.20
2023-01-02T08:21:19.227Z,12.20
2023-01-02T08:23:46.461Z,12.10
2023-01-02T08:28:54.853Z,12.20
2023-01-02T08:36:42.573Z,12.40
2023-01-02T09:05:42.337Z,13.40
2023-01-02T09:21:35.271Z,13.40
2023-01-02T09:24:03.131Z,13.40
2023-01-02T09:43:00.190Z,14.70
2023-01-02T09:45:30.343Z,15.00
2023-01-02T09:50:39.036Z,15.30
2023-01-02T09:53:06.046Z,15.20
2023-01-02T09:55:56.868Z,15.00
2023-01-02T10:02:37.648Z,15.10
2023-01-02T10:08:59.449Z,15.40
2023-01-02T11:11:41.415Z,16.70
2023-01-02T11:20:03.127Z,16.00
2023-01-02T11:22:37.538Z,15.90
2023-01-02T11:25:40.430Z,15.70
2023-01-02T11:28:29.062Z,15.30
2023-01-02T11:31:08.216Z,15.40
2023-01-02T11:33:37.669Z,15.50
2023-01-02T11:36:13.503Z,15.40
2023-01-02T11:39:30.325Z,15.50
2023-01-02T11:42:41.098Z,15.50
2023-01-02T11:45:17.843Z,15.90
2023-01-02T11:48:01.941Z,16.10
2023-01-02T11:50:35.343Z,16.30
2023-01-02T11:53:44.254Z,16.50
2023-01-02T11:56:43.780Z,16.70
2023-01-02T11:59:19.124Z,16.40
2023-01-02T12:02:18.401Z,16.20
2023-01-02T12:39:51.702Z,15.20
2023-01-02T12:49:53.416Z,15.40
2023-01-02T12:53:19.556Z,15.30
2023-01-02T12:59:51.047Z,15.20
2023-01-02T13:02:57.741Z,15.00
2023-01-02T13:06:45.767Z,14.90
2023-01-02T13:09:14.612Z,14.90
2023-01-02T13:12:06.915Z,14.70
2023-01-02T13:14:53.777Z,14.70
2023-01-02T13:17:45.396Z,14.50
2023-01-02T13:20:22.101Z,14.40
2023-01-02T13:26:15.088Z,14.50
2023-01-02T13:29:11.031Z,14.50
2023-01-02T13:32:02.954Z,14.50
2023-01-02T13:34:36.543Z,14.60
2023-01-02T13:37:17.043Z,14.90
2023-01-02T13:40:07.223Z,14.90
2023-01-02T13:42:58.849Z,15.00
2023-01-02T13:45:58.127Z,14.80
2023-01-02T13:48:48.514Z,14.90
2023-01-02T13:51:24.554Z,15.00
2023-01-02T13:53:53.178Z,14.90
2023-01-02T13:56:30.515Z,14.60
2023-01-02T13:59:42.777Z,14.60
2023-01-02T14:02:20.554Z,14.60
2023-01-02T14:04:52.533Z,14.50
2023-01-02T14:07:33.620Z,14.30
2023-01-02T14:14:14.049Z,14.10
2023-01-02T14:20:37.719Z,14.10
2023-01-02T14:42:47.226Z,13.70
2023-01-02T14:45:19.849Z,13.40
2023-01-02T14:47:55.569Z,13.40
2023-01-02T14:50:34.734Z,13.50
2023-01-02T14:53:23.551Z,13.50
2023-01-02T14:55:56.110Z,13.50
2023-01-02T14:58:36.048Z,13.20
2023-01-02T15:01:08.025Z,13.00
2023-01-02T15:19:59.903Z,12.50
2023-01-02T15:22:33.744Z,12.50
2023-01-02T15:25:02.743Z,12.50
2023-01-02T16:21:22.604Z,12.20
2023-01-02T16:45:28.193Z,12.00
2023-01-02T16:47:55.865Z,12.30
2023-01-02T16:50:31.991Z,12.30
2023-01-02T16:53:05.883Z,12.20
2023-01-02T16:55:34.770Z,12.00
2023-01-02T17:52:06.046Z,12.40
2023-01-02T17:54:35.099Z,12.10
2023-01-02T18:07:46.507Z,11.50
2023-01-02T18:10:20.384Z,11.70
2023-01-02T18:13:14.887Z,11.50
2023-01-02T18:23:58.923Z,11.50
2023-01-02T18:26:28.337Z,11.50
2023-01-02T18:29:09.680Z,11.40
2023-01-02T18:31:48.460Z,11.50
2023-01-02T18:37:28.876Z,11.60
2023-01-02T18:39:59.001Z,11.70
2023-01-02T18:42:31.985Z,11.70
2023-01-02T18:45:12.979Z,11.60
2023-01-02T18:47:44.988Z,11.50
2023-01-02T18:50:38.507Z,11.30
2023-01-02T18:53:20.269Z,11.40
2023-01-02T18:55:48.582Z,11.30
2023-01-02T18:58:44.123Z,11.30
2023-01-02T19:01:34.142Z,11.30
2023-01-02T19:07:04.202Z,11.20
2023-01-02T19:13:26.301Z,11.30
2023-01-02T19:16:08.924Z,11.20
2023-01-02T19:18:46.499Z,11.10
2023-01-02T19:21:37.005Z,11.20
2023-01-02T19:24:28.368Z,11.00
2023-01-02T19:26:58.821Z,10.90
2023-01-02T19:29:29.793Z,11.00
2023-01-02T19:32:04.234Z,11.00
2023-01-02T19:34:57.505Z,11.00
2023-01-02T19:37:46.048Z,11.00
2023-01-02T19:40:23.163Z,11.10
2023-01-02T19:42:56.046Z,11.00
2023-01-02T19:45:33.829Z,11.00
2023-01-02T19:48:02.078Z,10.90
2023-01-02T19:50:30.916Z,10.90
2023-01-02T19:53:02.006Z,10.80
2023-01-02T19:55:32.335Z,10.80
2023-01-02T19:58:00.854Z,10.80
2023-01-02T20:00:31.492Z,10.90
2023-01-02T20:02:58.705Z,10.90
2023-01-02T20:05:27.292Z,10.90
2023-01-02T20:07:58.329Z,11.00
2023-01-02T20:10:27.758Z,10.90
2023-01-02T20:12:58.589Z,10.90
2023-01-02T20:15:35.518Z,10.90
2023-01-02T20:18:08.372Z,10.90
2023-01-02T20:20:39.034Z,10.90
2023-01-02T20:23:08.305Z,10.90
2023-01-02T20:25:35.275Z,11.00
2023-01-02T20:28:05.439Z,10.90
2023-01-02T20:30:33.381Z,10.90
2023-01-02T20:33:04.175Z,11.10
2023-01-02T20:35:38.263Z,11.00
2023-01-02T20:38:08.433Z,10.90
2023-01-02T20:40:52.997Z,10.90
2023-01-02T20:43:21.633Z,10.90
2023-01-02T20:45:50.954Z,10.90
2023-01-02T20:48:18.077Z,10.80
2023-01-02T20:50:48.178Z,10.90
2023-01-02T20:53:15.539Z,10.90
2023-01-02T20:55:47.009Z,10.80
2023-01-02T20:58:14.229Z,10.90
2023-01-02T21:14:42.808Z,11.00
2023-01-02T21:22:35.809Z,11.30
2023-01-02T21:25:04.908Z,11.20
2023-01-02T21:57:53.904Z,11.30
2023-01-02T22:16:24.662Z,11.50
2023-01-02T22:51:01.712Z,11.90
2023-01-02T22:53:34.465Z,11.90
2023-01-02T22:56:06.797Z,12.00
2023-01-02T23:30:59.053Z,12.10
2023-01-02T23:38:57.749Z,12.00
2023-01-02T23:41:25.158Z,12.00
2023-01-02T23:43:52.113Z,11.90
2023-01-02T23:46:19.436Z,11.90
2023-01-02T23:51:29.042Z,11.80
2023-01-02T23:53:57.470Z,11.80
2023-01-02T23:59:02.480Z,11.80
